createdAt,value
2018-07-09T00:01:07.593Z,58.60
2018-07-09T00:06:10.681Z,58.70
2018-07-09T00:11:13.656Z,58.80
2018-07-09T00:16:16.708Z,58.90
2018-07-09T00:21:19.751Z,59.10
2018-07-09T00:26:22.791Z,59.20
2018-07-09T00:31:25.837Z,59.60
2018-07-09T00:36:28.865Z,60.40
2018-07-09T00:41:31.919Z,60.60
2018-07-09T00:46:34.954Z,60.50
2018-07-09T00:51:37.998Z,60.60
2018-07-09T00:56:41.040Z,62.60
2018-07-09T01:01:44.133Z,62.50
2018-07-09T01:06:47.172Z,62.70
2018-07-09T01:12:00.177Z,62.40
2018-07-09T01:17:03.224Z,62.30
2018-07-09T01:22:06.661Z,62.20
2018-07-09T01:27:09.697Z,62.10
2018-07-09T01:32:12.754Z,62.60
2018-07-09T01:37:15.788Z,63.00
2018-07-09T01:42:18.825Z,63.10
2018-07-09T01:47:21.865Z,62.60
2018-07-09T01:52:24.917Z,62.60
2018-07-09T01:57:27.957Z,62.70
2018-07-09T02:02:30.993Z,63.30
2018-07-09T02:07:34.054Z,63.60
2018-07-09T02:12:37.097Z,64.70
2018-07-09T02:17:40.161Z,65.70
2018-07-09T02:22:43.213Z,65.70
2018-07-09T02:27:46.248Z,65.40
2018-07-09T02:32:49.297Z,65.10
2018-07-09T02:37:52.344Z,64.90
2018-07-09T02:42:55.381Z,65.10
2018-07-09T02:47:58.623Z,65.60
2018-07-09T02:53:01.685Z,66.00
2018-07-09T02:58:04.776Z,65.80
2018-07-09T03:03:07.926Z,66.70
2018-07-09T03:08:10.978Z,66.40
2018-07-09T03:13:14.026Z,66.10
2018-07-09T03:18:17.061Z,65.70
2018-07-09T03:23:20.121Z,65.90
2018-07-09T03:28:23.180Z,67.50
2018-07-09T03:33:26.222Z,67.10
2018-07-09T03:38:29.269Z,67.20
2018-07-09T03:43:32.337Z,68.10
2018-07-09T03:48:35.378Z,68.40
2018-07-09T03:53:38.425Z,68.60
2018-07-09T03:58:41.478Z,69.70
2018-07-09T04:03:44.521Z,70.00
2018-07-09T04:08:47.569Z,70.50
2018-07-09T04:13:50.628Z,71.00
2018-07-09T04:18:53.757Z,72.40
2018-07-09T04:23:56.824Z,72.10
2018-07-09T04:28:59.868Z,72.50
2018-07-09T04:34:02.993Z,73.00
2018-07-09T04:39:06.817Z,73.20
2018-07-09T04:44:09.871Z,73.30
2018-07-09T04:49:12.960Z,73.30
2018-07-09T04:54:16.014Z,73.90
2018-07-09T04:59:19.053Z,74.30
2018-07-09T05:04:22.139Z,74.50
2018-07-09T05:09:25.154Z,73.80
2018-07-09T05:14:28.200Z,72.80
2018-07-09T05:19:31.271Z,72.30
2018-07-09T05:24:34.329Z,72.00
2018-07-09T05:29:37.477Z,71.50
2018-07-09T05:34:40.697Z,71.20
2018-07-09T05:39:44.210Z,70.80
2018-07-09T05:44:47.256Z,70.90
2018-07-09T05:49:50.877Z,71.00
2018-07-09T05:54:53.928Z,70.60
2018-07-09T05:59:56.984Z,70.30
2018-07-09T06:05:00.037Z,69.80
2018-07-09T06:10:03.159Z,68.90
2018-07-09T06:15:06.220Z,68.30
2018-07-09T06:20:09.257Z,67.80
2018-07-09T06:25:12.323Z,66.40
2018-07-09T06:30:15.381Z,65.50
2018-07-09T06:35:18.966Z,65.20
2018-07-09T06:40:22.014Z,65.60
2018-07-09T06:45:25.049Z,65.10
2018-07-09T06:50:28.113Z,63.90
2018-07-09T06:55:31.157Z,64.00
2018-07-09T07:00:34.229Z,62.50
2018-07-09T07:05:37.269Z,62.30
2018-07-09T07:10:40.321Z,61.80
2018-07-09T07:15:43.377Z,61.20
2018-07-09T07:20:46.423Z,60.00
2018-07-09T07:25:49.464Z,59.60
2018-07-09T07:30:52.498Z,58.50
2018-07-09T07:35:55.561Z,58.70
2018-07-09T07:40:58.597Z,57.50
2018-07-09T07:46:01.681Z,57.10
2018-07-09T07:51:04.847Z,57.10
2018-07-09T07:56:07.921Z,56.30
2018-07-09T08:01:10.957Z,55.80
2018-07-09T08:06:14.000Z,54.30
2018-07-09T08:11:17.037Z,54.20
2018-07-09T08:16:20.081Z,53.90
2018-07-09T08:21:23.122Z,53.70
2018-07-09T08:26:26.177Z,53.00
2018-07-09T08:31:29.269Z,52.30
2018-07-09T08:36:32.286Z,52.00
2018-07-09T08:41:35.334Z,51.00
2018-07-09T08:46:38.377Z,51.00
2018-07-09T08:51:41.430Z,50.30
2018-07-09T08:56:44.509Z,49.90
2018-07-09T09:01:47.544Z,49.50
2018-07-09T09:06:50.592Z,49.30
2018-07-09T09:11:53.633Z,49.90
2018-07-09T09:16:56.689Z,49.50
2018-07-09T09:21:59.817Z,49.40
2018-07-09T09:27:02.915Z,49.20
2018-07-09T09:32:05.957Z,49.50
2018-07-09T09:37:09.225Z,50.00
2018-07-09T09:42:12.264Z,49.70
2018-07-09T09:47:15.317Z,49.70
2018-07-09T09:52:18.662Z,50.00
2018-07-09T09:57:21.710Z,50.20
2018-07-09T10:02:24.753Z,50.20
2018-07-09T10:07:27.796Z,50.00
2018-07-09T10:12:30.837Z,50.10
2018-07-09T10:17:33.897Z,50.10
2018-07-09T10:22:36.941Z,50.30
2018-07-09T10:27:39.978Z,49.90
2018-07-09T10:32:43.013Z,50.30
2018-07-09T10:37:46.046Z,51.10
2018-07-09T10:42:49.099Z,51.30
2018-07-09T10:47:52.137Z,51.50
2018-07-09T10:52:55.185Z,52.00
2018-07-09T10:57:58.220Z,52.00
2018-07-09T11:03:01.310Z,52.60
2018-07-09T11:08:04.360Z,52.70
2018-07-09T11:13:07.461Z,52.70
2018-07-09T11:18:10.517Z,53.00
2018-07-09T11:23:13.662Z,52.60
2018-07-09T11:28:16.708Z,52.70
2018-07-09T11:33:19.746Z,53.20
2018-07-09T11:38:22.793Z,53.60
2018-07-09T11:43:25.845Z,54.10
2018-07-09T11:48:28.889Z,54.40
2018-07-09T11:53:32.760Z,55.20
2018-07-09T11:58:35.814Z,55.90
2018-07-09T12:03:38.841Z,56.10
2018-07-09T12:08:41.889Z,56.30
2018-07-09T12:13:44.997Z,56.70
2018-07-09T12:18:48.034Z,56.80
2018-07-09T12:23:51.079Z,57.00
2018-07-09T12:28:54.147Z,57.60
2018-07-09T12:33:57.185Z,57.60
2018-07-09T12:39:00.236Z,57.40
2018-07-09T12:44:03.326Z,57.40
2018-07-09T12:49:06.356Z,57.20
2018-07-09T12:54:09.405Z,56.90
2018-07-09T12:59:12.509Z,55.80
2018-07-09T13:04:16.671Z,55.60
2018-07-09T13:09:19.705Z,55.30
2018-07-09T13:14:22.792Z,55.30
2018-07-09T13:19:25.814Z,55.10
2018-07-09T13:24:28.877Z,54.50
2018-07-09T13:29:31.912Z,55.60
2018-07-09T13:34:34.981Z,54.60
2018-07-09T13:39:38.029Z,54.40
2018-07-09T13:44:41.069Z,53.80
2018-07-09T13:49:44.120Z,53.70
2018-07-09T13:54:47.173Z,53.30
2018-07-09T13:59:50.221Z,53.40
2018-07-09T14:04:53.268Z,53.80
2018-07-09T14:09:56.321Z,53.20
2018-07-09T14:14:59.360Z,52.80
2018-07-09T14:20:24.037Z,52.20
2018-07-09T14:25:27.086Z,52.00
2018-07-09T14:30:31.880Z,51.50
2018-07-09T14:35:35.090Z,51.80
2018-07-09T14:40:38.148Z,51.70
2018-07-09T14:45:41.196Z,52.10
2018-07-09T14:50:44.279Z,52.00
2018-07-09T14:55:47.308Z,52.20
2018-07-09T15:00:50.360Z,52.60
2018-07-09T15:05:53.434Z,52.80
2018-07-09T15:10:56.500Z,53.00
2018-07-09T15:15:59.572Z,53.30
2018-07-09T15:21:02.696Z,53.70
2018-07-09T15:26:05.703Z,53.90
2018-07-09T15:31:08.765Z,54.00
2018-07-09T15:36:11.845Z,54.20
2018-07-09T15:41:14.919Z,54.20
2018-07-09T15:46:17.993Z,54.30
2018-07-09T15:51:22.102Z,54.60
2018-07-09T15:56:25.771Z,54.50
2018-07-09T16:01:29.257Z,54.70
2018-07-09T16:06:32.328Z,54.70
2018-07-09T16:11:35.649Z,54.70
2018-07-09T16:16:38.718Z,54.70
2018-07-09T16:21:41.841Z,54.50
2018-07-09T16:26:44.953Z,54.30
2018-07-09T16:31:48.014Z,54.50
2018-07-09T16:36:51.074Z,54.60
2018-07-09T16:41:54.137Z,54.90
2018-07-09T16:46:57.209Z,54.90
2018-07-09T16:52:00.233Z,55.00
2018-07-09T16:57:03.289Z,55.00
2018-07-09T17:02:06.651Z,55.50
2018-07-09T17:07:09.700Z,57.60
2018-07-09T17:12:12.753Z,58.50
2018-07-09T17:17:15.895Z,59.00
2018-07-09T17:22:18.997Z,59.00
2018-07-09T17:27:23.120Z,59.00
2018-07-09T17:32:26.307Z,58.60
2018-07-09T17:37:29.320Z,58.30
2018-07-09T17:42:32.417Z,58.40
2018-07-09T17:47:35.498Z,58.20
2018-07-09T17:52:38.549Z,58.10
2018-07-09T17:57:41.641Z,58.20
2018-07-09T18:02:44.733Z,58.20
2018-07-09T18:07:47.757Z,58.30
2018-07-09T18:12:50.830Z,58.50
2018-07-09T18:17:53.941Z,58.60
2018-07-09T18:22:57.034Z,59.00
2018-07-09T18:28:00.102Z,58.90
2018-07-09T18:33:03.203Z,59.00
2018-07-09T18:38:06.352Z,58.90
2018-07-09T18:43:09.397Z,59.00
2018-07-09T18:48:16.238Z,58.90
2018-07-09T18:53:19.351Z,58.90
2018-07-09T18:58:23.651Z,59.20
2018-07-09T19:03:26.661Z,59.40
2018-07-09T19:08:29.714Z,59.60
2018-07-09T19:13:32.896Z,59.80
2018-07-09T19:18:47.334Z,60.20
2018-07-09T19:23:49.544Z,60.30
2018-07-09T19:28:51.847Z,60.30
2018-07-09T19:33:54.022Z,60.10
2018-07-09T19:38:56.201Z,60.80
2018-07-09T19:43:58.364Z,60.10
2018-07-09T19:49:01.477Z,60.00
2018-07-09T19:54:03.646Z,59.80
2018-07-09T19:59:05.833Z,59.80
2018-07-09T20:04:07.985Z,60.10
2018-07-09T20:09:15.621Z,60.30
2018-07-09T20:16:27.005Z,60.60
2018-07-09T20:21:29.869Z,61.10
2018-07-09T20:26:32.025Z,61.50
2018-07-09T20:31:34.172Z,61.70
2018-07-09T20:36:36.321Z,61.60
2018-07-09T20:41:38.462Z,60.80
2018-07-09T20:46:40.609Z,59.90
2018-07-09T20:51:42.761Z,59.40
2018-07-09T20:56:44.901Z,59.30
2018-07-09T21:01:47.049Z,59.40
2018-07-09T21:06:49.189Z,59.50
2018-07-09T21:11:51.333Z,59.60
2018-07-09T21:16:53.484Z,59.90
2018-07-09T21:21:55.686Z,59.90
2018-07-09T21:26:57.787Z,60.20
2018-07-09T21:31:59.953Z,60.40
2018-07-09T21:37:02.116Z,60.70
2018-07-09T21:42:04.273Z,60.40
2018-07-09T21:47:06.429Z,59.80
2018-07-09T21:52:08.577Z,59.00
2018-07-09T21:57:10.757Z,58.00
2018-07-09T22:02:12.925Z,57.90
2018-07-09T22:07:15.070Z,58.00
2018-07-09T22:12:17.217Z,57.40
2018-07-09T22:17:19.360Z,57.20
2018-07-09T22:22:21.508Z,57.10
2018-07-09T22:27:23.661Z,56.70
2018-07-09T22:32:26.708Z,56.70
2018-07-09T22:37:29.750Z,56.50
2018-07-09T22:42:32.802Z,56.40
2018-07-09T22:47:35.852Z,56.50
2018-07-09T22:52:38.937Z,56.60
2018-07-09T22:57:41.997Z,57.40
2018-07-09T23:02:46.661Z,57.80
2018-07-09T23:07:49.705Z,58.00
2018-07-09T23:13:19.260Z,58.00
2018-07-09T23:18:34.101Z,58.10
2018-07-09T23:23:36.250Z,58.00
2018-07-09T23:28:38.401Z,58.10
2018-07-09T23:33:40.549Z,58.30
2018-07-09T23:38:42.692Z,58.90
2018-07-09T23:43:44.834Z,58.30
2018-07-09T23:48:46.981Z,58.30
2018-07-09T23:53:49.128Z,58.40
2018-07-09T23:59:29.416Z,58.40
